Terminal Aerodrome Forecast
Issued by NWS Norman, OK

Home | Current Version | Previous Version | Text Only | Print | Product List | Glossary On
Versions: 1 2 3 4 5 6 7 8 9 10 11 12 13 14 15 16 17 18 19 20 21 22 23 24 25 26 27 28 29 30
000
FTUS44 KOUN 201720
TAFOKC
TAF
KOKC 201720Z 2018/2118 14016G22KT P6SM BKN250
     FM210000 12012KT P6SM BKN120 BKN200
      TEMPO 2103/2106 P6SM -SHRA OVC050
     FM210800 12012KT 6SM -RA SCT008 OVC020
     FM211500 10010KT P6SM -SHRA OVC025=

USA.gov is the U.S. government's official web portal to all federal, state and local government web resources and services.